FQNP

Nampula Airport

Nampula, Mozambique
METAR FQNP 180100Z 03008KT CAVOK 24/23 Q1013
Observed Flight Rules
Oct-18 @ 01:00 UTC (12 minutes ago) Visual Flight Rules
Wind Visibility Clouds
30° at 8 knots 10,000+ meters
  • Clear skies
Temperatures Readings
Current 24°C / 75°F
Dewpoint 23°C / 73°F
Humidity 94%
Altimeter 29.91" Hg
Pressure 1013 hPa
Elevation 441
METAR FQNP 180100Z 03008KT CAVOK 24/23 Q1013
Observed Flight Rules
Oct-18 @ 01:00 UTC
(12 minutes ago)
VFR
Wind Visibility
30° at 8 knots 10,000+ meters
Clouds
  • Clear skies
Temperature Dewpoint
24°C / 75°F 23°C / 73°F
Humidity Altimeter Pressure
94% 29.91" Hg 1013 hPa